sensor_id;sensor_type;location;lat;lon;timestamp;P1;durP1;ratioP1;P2;durP2;ratioP2
59930;SDS011;45790;51.538;6.736;2022-07-29T00:01:23;2.15;;;0.70;;
59930;SDS011;45790;51.538;6.736;2022-07-29T00:03:48;3.20;;;0.98;;
59930;SDS011;45790;51.538;6.736;2022-07-29T00:06:17;2.15;;;1.00;;
59930;SDS011;45790;51.538;6.736;2022-07-29T00:08:42;3.03;;;0.90;;
59930;SDS011;45790;51.538;6.736;2022-07-29T00:11:10;1.98;;;0.93;;
59930;SDS011;45790;51.538;6.736;2022-07-29T00:13:36;1.90;;;0.80;;
59930;SDS011;45790;51.538;6.736;2022-07-29T00:16:01;2.90;;;0.98;;
59930;SDS011;45790;51.538;6.736;2022-07-29T00:18:26;1.70;;;0.63;;
59930;SDS011;45790;51.538;6.736;2022-07-29T00:20:51;2.95;;;0.80;;
59930;SDS011;45790;51.538;6.736;2022-07-29T00:23:17;2.63;;;0.70;;
59930;SDS011;45790;51.538;6.736;2022-07-29T00:25:42;2.67;;;0.70;;
59930;SDS011;45790;51.538;6.736;2022-07-29T00:28:07;1.52;;;0.60;;
59930;SDS011;45790;51.538;6.736;2022-07-29T00:30:33;1.77;;;1.00;;
59930;SDS011;45790;51.538;6.736;2022-07-29T00:32:58;1.60;;;0.88;;
59930;SDS011;45790;51.538;6.736;2022-07-29T00:35:23;3.72;;;0.80;;
59930;SDS011;45790;51.538;6.736;2022-07-29T00:38:07;2.08;;;0.82;;
59930;SDS011;45790;51.538;6.736;2022-07-29T00:40:33;2.10;;;0.75;;
59930;SDS011;45790;51.538;6.736;2022-07-29T00:42:58;1.42;;;0.70;;
59930;SDS011;45790;51.538;6.736;2022-07-29T00:45:23;3.35;;;0.80;;
59930;SDS011;45790;51.538;6.736;2022-07-29T00:47:49;1.00;;;0.68;;
59930;SDS011;45790;51.538;6.736;2022-07-29T00:50:15;1.27;;;0.70;;
59930;SDS011;45790;51.538;6.736;2022-07-29T00:52:41;3.05;;;1.00;;
59930;SDS011;45790;51.538;6.736;2022-07-29T00:55:08;1.55;;;0.68;;
59930;SDS011;45790;51.538;6.736;2022-07-29T00:57:35;2.33;;;0.75;;
59930;SDS011;45790;51.538;6.736;2022-07-29T01:00:00;2.17;;;0.88;;
59930;SDS011;45790;51.538;6.736;2022-07-29T01:02:25;1.10;;;0.73;;
59930;SDS011;45790;51.538;6.736;2022-07-29T01:04:51;2.33;;;0.93;;
59930;SDS011;45790;51.538;6.736;2022-07-29T01:07:17;4.20;;;0.98;;
59930;SDS011;45790;51.538;6.736;2022-07-29T01:09:43;2.83;;;0.90;;
59930;SDS011;45790;51.538;6.736;2022-07-29T01:12:09;1.38;;;0.68;;
59930;SDS011;45790;51.538;6.736;2022-07-29T01:14:35;1.30;;;0.60;;
59930;SDS011;45790;51.538;6.736;2022-07-29T01:17:10;3.10;;;0.90;;
59930;SDS011;45790;51.538;6.736;2022-07-29T01:22:18;2.35;;;0.73;;
59930;SDS011;45790;51.538;6.736;2022-07-29T01:25:26;1.55;;;0.80;;
59930;SDS011;45790;51.538;6.736;2022-07-29T01:30:32;1.67;;;0.75;;
59930;SDS011;45790;51.538;6.736;2022-07-29T01:33:02;1.67;;;0.88;;
59930;SDS011;45790;51.538;6.736;2022-07-29T01:35:30;1.13;;;0.70;;
59930;SDS011;45790;51.538;6.736;2022-07-29T01:38:11;1.15;;;0.60;;
59930;SDS011;45790;51.538;6.736;2022-07-29T01:40:49;3.65;;;0.80;;
59930;SDS011;45790;51.538;6.736;2022-07-29T01:43:18;2.42;;;0.63;;
59930;SDS011;45790;51.538;6.736;2022-07-29T01:45:50;3.72;;;1.05;;
59930;SDS011;45790;51.538;6.736;2022-07-29T01:48:34;1.85;;;0.70;;
59930;SDS011;45790;51.538;6.736;2022-07-29T01:53:47;3.00;;;0.85;;
59930;SDS011;45790;51.538;6.736;2022-07-29T01:56:16;1.13;;;0.80;;
59930;SDS011;45790;51.538;6.736;2022-07-29T01:58:43;1.88;;;0.70;;
59930;SDS011;45790;51.538;6.736;2022-07-29T02:01:10;1.40;;;0.70;;
59930;SDS011;45790;51.538;6.736;2022-07-29T02:03:36;2.65;;;0.95;;
59930;SDS011;45790;51.538;6.736;2022-07-29T02:06:03;4.32;;;0.95;;
59930;SDS011;45790;51.538;6.736;2022-07-29T02:08:29;2.10;;;0.70;;
59930;SDS011;45790;51.538;6.736;2022-07-29T02:10:56;2.28;;;0.93;;
59930;SDS011;45790;51.538;6.736;2022-07-29T02:13:22;1.70;;;0.70;;
59930;SDS011;45790;51.538;6.736;2022-07-29T02:15:48;1.48;;;0.60;;
59930;SDS011;45790;51.538;6.736;2022-07-29T02:18:18;1.48;;;0.80;;
59930;SDS011;45790;51.538;6.736;2022-07-29T02:20:44;1.45;;;0.77;;
59930;SDS011;45790;51.538;6.736;2022-07-29T02:23:12;1.08;;;0.70;;
59930;SDS011;45790;51.538;6.736;2022-07-29T02:25:40;1.60;;;0.63;;
59930;SDS011;45790;51.538;6.736;2022-07-29T02:28:07;1.85;;;0.70;;
59930;SDS011;45790;51.538;6.736;2022-07-29T02:30:32;1.70;;;0.75;;
59930;SDS011;45790;51.538;6.736;2022-07-29T02:32:59;1.75;;;0.60;;
59930;SDS011;45790;51.538;6.736;2022-07-29T02:35:25;1.73;;;0.90;;
59930;SDS011;45790;51.538;6.736;2022-07-29T02:37:50;2.08;;;0.50;;
59930;SDS011;45790;51.538;6.736;2022-07-29T02:40:37;1.85;;;0.77;;
59930;SDS011;45790;51.538;6.736;2022-07-29T02:43:03;2.17;;;0.80;;
59930;SDS011;45790;51.538;6.736;2022-07-29T02:45:31;1.90;;;0.77;;
59930;SDS011;45790;51.538;6.736;2022-07-29T02:47:57;1.85;;;0.70;;
59930;SDS011;45790;51.538;6.736;2022-07-29T02:50:34;3.25;;;0.90;;
59930;SDS011;45790;51.538;6.736;2022-07-29T02:53:09;1.58;;;0.70;;
59930;SDS011;45790;51.538;6.736;2022-07-29T03:00:53;1.15;;;0.50;;
59930;SDS011;45790;51.538;6.736;2022-07-29T03:03:20;1.88;;;0.60;;
59930;SDS011;45790;51.538;6.736;2022-07-29T03:05:46;2.08;;;0.70;;
59930;SDS011;45790;51.538;6.736;2022-07-29T03:08:12;1.10;;;0.70;;
59930;SDS011;45790;51.538;6.736;2022-07-29T03:10:39;1.50;;;0.70;;
59930;SDS011;45790;51.538;6.736;2022-07-29T03:13:05;1.35;;;0.50;;
59930;SDS011;45790;51.538;6.736;2022-07-29T03:15:32;1.45;;;0.63;;
59930;SDS011;45790;51.538;6.736;2022-07-29T03:17:58;1.77;;;0.60;;
59930;SDS011;45790;51.538;6.736;2022-07-29T03:20:23;2.08;;;0.60;;
59930;SDS011;45790;51.538;6.736;2022-07-29T03:22:49;1.20;;;0.60;;
59930;SDS011;45790;51.538;6.736;2022-07-29T03:25:15;1.02;;;0.50;;
59930;SDS011;45790;51.538;6.736;2022-07-29T03:27:42;5.15;;;0.68;;
59930;SDS011;45790;51.538;6.736;2022-07-29T03:30:08;2.03;;;0.70;;
59930;SDS011;45790;51.538;6.736;2022-07-29T03:32:35;1.85;;;0.80;;
59930;SDS011;45790;51.538;6.736;2022-07-29T03:35:00;3.33;;;0.80;;
59930;SDS011;45790;51.538;6.736;2022-07-29T03:37:26;1.95;;;0.90;;
59930;SDS011;45790;51.538;6.736;2022-07-29T03:39:51;2.58;;;0.80;;
59930;SDS011;45790;51.538;6.736;2022-07-29T03:42:18;1.67;;;0.75;;
59930;SDS011;45790;51.538;6.736;2022-07-29T03:44:45;1.42;;;0.60;;
59930;SDS011;45790;51.538;6.736;2022-07-29T03:47:13;1.25;;;0.65;;
59930;SDS011;45790;51.538;6.736;2022-07-29T03:49:40;2.15;;;0.73;;
59930;SDS011;45790;51.538;6.736;2022-07-29T03:52:05;1.45;;;0.75;;
59930;SDS011;45790;51.538;6.736;2022-07-29T03:54:31;2.20;;;0.80;;
59930;SDS011;45790;51.538;6.736;2022-07-29T03:56:56;1.35;;;0.60;;
59930;SDS011;45790;51.538;6.736;2022-07-29T03:59:24;2.13;;;0.77;;
59930;SDS011;45790;51.538;6.736;2022-07-29T04:01:51;2.85;;;0.93;;
59930;SDS011;45790;51.538;6.736;2022-07-29T04:04:17;2.78;;;0.80;;
59930;SDS011;45790;51.538;6.736;2022-07-29T04:06:43;2.60;;;0.80;;
59930;SDS011;45790;51.538;6.736;2022-07-29T04:09:10;2.33;;;1.00;;
59930;SDS011;45790;51.538;6.736;2022-07-29T04:11:35;2.80;;;0.82;;
59930;SDS011;45790;51.538;6.736;2022-07-29T04:14:02;1.63;;;0.70;;
59930;SDS011;45790;51.538;6.736;2022-07-29T04:16:27;1.90;;;0.65;;
59930;SDS011;45790;51.538;6.736;2022-07-29T04:18:52;1.27;;;0.60;;
59930;SDS011;45790;51.538;6.736;2022-07-29T04:21:18;1.58;;;0.73;;
59930;SDS011;45790;51.538;6.736;2022-07-29T04:23:43;1.25;;;0.60;;
59930;SDS011;45790;51.538;6.736;2022-07-29T04:26:10;1.13;;;0.60;;
59930;SDS011;45790;51.538;6.736;2022-07-29T04:28:35;3.65;;;0.95;;
59930;SDS011;45790;51.538;6.736;2022-07-29T04:31:01;2.58;;;0.90;;
59930;SDS011;45790;51.538;6.736;2022-07-29T04:33:26;3.00;;;0.93;;
59930;SDS011;45790;51.538;6.736;2022-07-29T04:35:52;2.47;;;0.93;;
59930;SDS011;45790;51.538;6.736;2022-07-29T04:38:17;2.53;;;1.00;;
59930;SDS011;45790;51.538;6.736;2022-07-29T04:40:42;4.80;;;0.90;;
59930;SDS011;45790;51.538;6.736;2022-07-29T04:43:08;3.45;;;0.95;;
59930;SDS011;45790;51.538;6.736;2022-07-29T04:45:33;4.65;;;0.90;;
59930;SDS011;45790;51.538;6.736;2022-07-29T04:47:59;2.70;;;1.00;;
59930;SDS011;45790;51.538;6.736;2022-07-29T04:50:24;1.48;;;0.80;;
59930;SDS011;45790;51.538;6.736;2022-07-29T04:52:49;6.53;;;1.00;;
59930;SDS011;45790;51.538;6.736;2022-07-29T04:55:15;3.25;;;1.13;;
59930;SDS011;45790;51.538;6.736;2022-07-29T04:57:40;4.57;;;0.90;;
59930;SDS011;45790;51.538;6.736;2022-07-29T05:00:06;2.25;;;1.00;;
59930;SDS011;45790;51.538;6.736;2022-07-29T05:02:32;2.88;;;1.00;;
59930;SDS011;45790;51.538;6.736;2022-07-29T05:04:57;2.72;;;1.10;;
59930;SDS011;45790;51.538;6.736;2022-07-29T05:07:22;2.28;;;0.80;;
59930;SDS011;45790;51.538;6.736;2022-07-29T05:09:48;1.98;;;0.90;;
59930;SDS011;45790;51.538;6.736;2022-07-29T05:12:13;3.25;;;1.23;;
59930;SDS011;45790;51.538;6.736;2022-07-29T05:14:39;4.65;;;1.05;;
59930;SDS011;45790;51.538;6.736;2022-07-29T05:17:04;2.13;;;0.80;;
59930;SDS011;45790;51.538;6.736;2022-07-29T05:19:30;2.33;;;0.90;;
59930;SDS011;45790;51.538;6.736;2022-07-29T05:21:55;1.65;;;0.80;;
59930;SDS011;45790;51.538;6.736;2022-07-29T05:24:20;3.08;;;1.00;;
59930;SDS011;45790;51.538;6.736;2022-07-29T05:26:46;1.77;;;0.90;;
59930;SDS011;45790;51.538;6.736;2022-07-29T05:29:11;2.85;;;0.90;;
59930;SDS011;45790;51.538;6.736;2022-07-29T05:31:36;2.30;;;1.08;;
59930;SDS011;45790;51.538;6.736;2022-07-29T05:34:02;2.75;;;0.90;;
59930;SDS011;45790;51.538;6.736;2022-07-29T05:36:27;1.52;;;0.85;;
59930;SDS011;45790;51.538;6.736;2022-07-29T05:38:52;2.85;;;0.82;;
59930;SDS011;45790;51.538;6.736;2022-07-29T05:41:18;1.95;;;1.10;;
59930;SDS011;45790;51.538;6.736;2022-07-29T05:43:44;2.65;;;0.90;;
59930;SDS011;45790;51.538;6.736;2022-07-29T05:46:09;2.65;;;1.00;;
59930;SDS011;45790;51.538;6.736;2022-07-29T05:48:34;1.63;;;0.80;;
59930;SDS011;45790;51.538;6.736;2022-07-29T05:51:00;1.90;;;0.80;;
59930;SDS011;45790;51.538;6.736;2022-07-29T05:53:25;2.30;;;1.10;;
59930;SDS011;45790;51.538;6.736;2022-07-29T05:55:50;3.30;;;1.00;;
59930;SDS011;45790;51.538;6.736;2022-07-29T05:58:17;3.95;;;1.00;;
59930;SDS011;45790;51.538;6.736;2022-07-29T06:00:42;2.08;;;0.88;;
59930;SDS011;45790;51.538;6.736;2022-07-29T06:03:07;2.22;;;1.00;;
59930;SDS011;45790;51.538;6.736;2022-07-29T06:05:32;2.70;;;0.77;;
59930;SDS011;45790;51.538;6.736;2022-07-29T06:07:58;3.67;;;1.10;;
59930;SDS011;45790;51.538;6.736;2022-07-29T06:10:23;3.13;;;1.00;;
59930;SDS011;45790;51.538;6.736;2022-07-29T06:12:49;2.60;;;0.98;;
59930;SDS011;45790;51.538;6.736;2022-07-29T06:15:15;2.72;;;0.88;;
59930;SDS011;45790;51.538;6.736;2022-07-29T06:17:40;2.78;;;0.90;;
59930;SDS011;45790;51.538;6.736;2022-07-29T06:20:05;2.67;;;1.17;;
59930;SDS011;45790;51.538;6.736;2022-07-29T06:22:31;2.60;;;0.80;;
59930;SDS011;45790;51.538;6.736;2022-07-29T06:24:56;2.30;;;1.10;;
59930;SDS011;45790;51.538;6.736;2022-07-29T06:27:22;1.50;;;1.00;;
59930;SDS011;45790;51.538;6.736;2022-07-29T06:29:47;1.67;;;0.80;;
59930;SDS011;45790;51.538;6.736;2022-07-29T06:32:12;3.13;;;1.08;;
59930;SDS011;45790;51.538;6.736;2022-07-29T06:34:38;2.20;;;1.10;;
59930;SDS011;45790;51.538;6.736;2022-07-29T06:37:09;1.88;;;1.10;;
59930;SDS011;45790;51.538;6.736;2022-07-29T06:39:37;2.22;;;1.00;;
59930;SDS011;45790;51.538;6.736;2022-07-29T06:42:06;1.85;;;1.00;;
59930;SDS011;45790;51.538;6.736;2022-07-29T06:44:32;2.30;;;0.90;;
59930;SDS011;45790;51.538;6.736;2022-07-29T06:46:58;2.38;;;0.90;;
59930;SDS011;45790;51.538;6.736;2022-07-29T06:49:31;3.33;;;1.30;;
59930;SDS011;45790;51.538;6.736;2022-07-29T06:51:56;2.63;;;1.00;;
59930;SDS011;45790;51.538;6.736;2022-07-29T06:54:22;2.15;;;1.02;;
59930;SDS011;45790;51.538;6.736;2022-07-29T06:56:47;3.65;;;1.10;;
59930;SDS011;45790;51.538;6.736;2022-07-29T06:59:13;2.88;;;1.20;;
59930;SDS011;45790;51.538;6.736;2022-07-29T07:01:39;2.17;;;1.00;;
59930;SDS011;45790;51.538;6.736;2022-07-29T07:04:06;2.33;;;1.00;;
59930;SDS011;45790;51.538;6.736;2022-07-29T07:06:33;1.90;;;0.90;;
59930;SDS011;45790;51.538;6.736;2022-07-29T07:08:59;2.30;;;0.95;;
59930;SDS011;45790;51.538;6.736;2022-07-29T07:11:24;2.53;;;1.10;;
59930;SDS011;45790;51.538;6.736;2022-07-29T07:13:49;1.88;;;1.05;;
59930;SDS011;45790;51.538;6.736;2022-07-29T07:16:15;3.10;;;1.10;;
59930;SDS011;45790;51.538;6.736;2022-07-29T07:18:40;1.85;;;1.10;;
59930;SDS011;45790;51.538;6.736;2022-07-29T07:21:06;1.60;;;0.80;;
59930;SDS011;45790;51.538;6.736;2022-07-29T07:23:31;3.00;;;1.05;;
59930;SDS011;45790;51.538;6.736;2022-07-29T07:25:56;1.70;;;0.93;;
59930;SDS011;45790;51.538;6.736;2022-07-29T07:28:22;2.75;;;0.90;;
59930;SDS011;45790;51.538;6.736;2022-07-29T07:30:47;4.80;;;1.30;;
59930;SDS011;45790;51.538;6.736;2022-07-29T07:33:12;3.97;;;1.20;;
59930;SDS011;45790;51.538;6.736;2022-07-29T07:35:38;1.92;;;1.02;;
59930;SDS011;45790;51.538;6.736;2022-07-29T07:38:03;2.28;;;1.02;;
59930;SDS011;45790;51.538;6.736;2022-07-29T07:40:30;3.28;;;1.00;;
59930;SDS011;45790;51.538;6.736;2022-07-29T07:42:56;3.85;;;0.95;;
59930;SDS011;45790;51.538;6.736;2022-07-29T07:45:21;3.13;;;1.00;;
59930;SDS011;45790;51.538;6.736;2022-07-29T07:47:47;3.28;;;1.10;;
59930;SDS011;45790;51.538;6.736;2022-07-29T07:50:12;2.72;;;1.02;;
59930;SDS011;45790;51.538;6.736;2022-07-29T07:52:50;5.18;;;1.50;;
59930;SDS011;45790;51.538;6.736;2022-07-29T07:55:17;1.80;;;1.05;;
59930;SDS011;45790;51.538;6.736;2022-07-29T07:57:44;3.25;;;1.20;;
59930;SDS011;45790;51.538;6.736;2022-07-29T08:00:10;3.15;;;1.00;;
59930;SDS011;45790;51.538;6.736;2022-07-29T08:02:36;3.35;;;1.30;;
59930;SDS011;45790;51.538;6.736;2022-07-29T08:05:02;3.03;;;1.30;;
59930;SDS011;45790;51.538;6.736;2022-07-29T08:07:28;3.30;;;1.30;;
59930;SDS011;45790;51.538;6.736;2022-07-29T08:09:54;2.58;;;1.17;;
59930;SDS011;45790;51.538;6.736;2022-07-29T08:12:19;4.80;;;1.15;;
59930;SDS011;45790;51.538;6.736;2022-07-29T08:14:44;3.40;;;1.30;;
59930;SDS011;45790;51.538;6.736;2022-07-29T08:17:09;7.82;;;1.33;;
59930;SDS011;45790;51.538;6.736;2022-07-29T08:19:35;2.92;;;1.40;;
59930;SDS011;45790;51.538;6.736;2022-07-29T08:22:01;2.97;;;1.20;;
59930;SDS011;45790;51.538;6.736;2022-07-29T08:24:26;3.78;;;1.30;;
59930;SDS011;45790;51.538;6.736;2022-07-29T08:27:10;3.20;;;1.33;;
59930;SDS011;45790;51.538;6.736;2022-07-29T08:29:36;5.00;;;1.40;;
59930;SDS011;45790;51.538;6.736;2022-07-29T08:32:02;4.28;;;1.42;;
59930;SDS011;45790;51.538;6.736;2022-07-29T08:34:28;2.85;;;1.30;;
59930;SDS011;45790;51.538;6.736;2022-07-29T08:36:53;3.60;;;1.23;;
59930;SDS011;45790;51.538;6.736;2022-07-29T08:39:20;3.50;;;1.35;;
59930;SDS011;45790;51.538;6.736;2022-07-29T08:41:45;9.20;;;1.60;;
59930;SDS011;45790;51.538;6.736;2022-07-29T08:44:11;3.72;;;1.33;;
59930;SDS011;45790;51.538;6.736;2022-07-29T08:46:37;3.80;;;1.30;;
59930;SDS011;45790;51.538;6.736;2022-07-29T08:49:04;3.15;;;1.40;;
59930;SDS011;45790;51.538;6.736;2022-07-29T08:51:30;4.78;;;1.60;;
59930;SDS011;45790;51.538;6.736;2022-07-29T08:53:55;3.30;;;1.40;;
59930;SDS011;45790;51.538;6.736;2022-07-29T08:56:21;3.10;;;1.30;;
59930;SDS011;45790;51.538;6.736;2022-07-29T08:58:47;3.75;;;1.40;;
59930;SDS011;45790;51.538;6.736;2022-07-29T09:01:13;3.90;;;1.52;;
59930;SDS011;45790;51.538;6.736;2022-07-29T09:03:41;3.28;;;1.50;;
59930;SDS011;45790;51.538;6.736;2022-07-29T09:06:09;3.25;;;1.52;;
59930;SDS011;45790;51.538;6.736;2022-07-29T09:08:38;4.33;;;1.30;;
59930;SDS011;45790;51.538;6.736;2022-07-29T09:11:03;4.97;;;1.70;;
59930;SDS011;45790;51.538;6.736;2022-07-29T09:13:29;2.80;;;1.23;;
59930;SDS011;45790;51.538;6.736;2022-07-29T09:15:54;3.13;;;1.50;;
59930;SDS011;45790;51.538;6.736;2022-07-29T09:18:36;4.13;;;1.50;;
59930;SDS011;45790;51.538;6.736;2022-07-29T09:21:03;2.97;;;1.50;;
59930;SDS011;45790;51.538;6.736;2022-07-29T09:24:01;5.32;;;1.45;;
59930;SDS011;45790;51.538;6.736;2022-07-29T09:26:29;3.65;;;1.50;;
59930;SDS011;45790;51.538;6.736;2022-07-29T09:28:56;4.20;;;1.50;;
59930;SDS011;45790;51.538;6.736;2022-07-29T09:31:34;3.85;;;1.60;;
59930;SDS011;45790;51.538;6.736;2022-07-29T09:34:00;3.85;;;1.48;;
59930;SDS011;45790;51.538;6.736;2022-07-29T09:36:26;3.35;;;1.50;;
59930;SDS011;45790;51.538;6.736;2022-07-29T09:38:58;3.65;;;1.30;;
59930;SDS011;45790;51.538;6.736;2022-07-29T09:41:25;2.90;;;1.38;;
59930;SDS011;45790;51.538;6.736;2022-07-29T09:43:55;5.32;;;1.50;;
59930;SDS011;45790;51.538;6.736;2022-07-29T09:46:21;2.53;;;1.35;;
59930;SDS011;45790;51.538;6.736;2022-07-29T09:49:05;2.67;;;1.67;;
59930;SDS011;45790;51.538;6.736;2022-07-29T09:51:34;3.80;;;1.60;;
59930;SDS011;45790;51.538;6.736;2022-07-29T09:54:00;2.97;;;1.40;;
59930;SDS011;45790;51.538;6.736;2022-07-29T09:56:40;3.15;;;1.40;;
59930;SDS011;45790;51.538;6.736;2022-07-29T09:59:06;3.13;;;1.27;;
59930;SDS011;45790;51.538;6.736;2022-07-29T10:01:32;3.45;;;1.40;;
59930;SDS011;45790;51.538;6.736;2022-07-29T10:03:58;4.68;;;1.48;;
59930;SDS011;45790;51.538;6.736;2022-07-29T10:06:23;3.03;;;1.30;;
59930;SDS011;45790;51.538;6.736;2022-07-29T10:08:48;2.63;;;1.33;;
59930;SDS011;45790;51.538;6.736;2022-07-29T10:11:15;3.03;;;1.10;;
59930;SDS011;45790;51.538;6.736;2022-07-29T10:13:42;3.30;;;1.30;;
59930;SDS011;45790;51.538;6.736;2022-07-29T10:16:08;2.25;;;1.38;;
59930;SDS011;45790;51.538;6.736;2022-07-29T10:18:33;2.45;;;1.10;;
59930;SDS011;45790;51.538;6.736;2022-07-29T10:20:59;2.50;;;1.40;;
59930;SDS011;45790;51.538;6.736;2022-07-29T10:23:26;2.60;;;1.38;;
59930;SDS011;45790;51.538;6.736;2022-07-29T10:25:52;2.90;;;1.30;;
59930;SDS011;45790;51.538;6.736;2022-07-29T10:28:17;2.35;;;1.17;;
59930;SDS011;45790;51.538;6.736;2022-07-29T10:30:43;1.85;;;1.17;;
59930;SDS011;45790;51.538;6.736;2022-07-29T10:35:44;2.38;;;0.90;;
59930;SDS011;45790;51.538;6.736;2022-07-29T10:38:34;2.97;;;1.15;;
59930;SDS011;45790;51.538;6.736;2022-07-29T10:44:03;3.55;;;1.30;;
59930;SDS011;45790;51.538;6.736;2022-07-29T10:46:37;1.67;;;1.00;;
59930;SDS011;45790;51.538;6.736;2022-07-29T10:49:04;2.17;;;1.23;;
59930;SDS011;45790;51.538;6.736;2022-07-29T10:57:44;3.65;;;1.15;;
59930;SDS011;45790;51.538;6.736;2022-07-29T11:07:23;2.63;;;1.50;;
59930;SDS011;45790;51.538;6.736;2022-07-29T11:12:47;3.42;;;1.23;;
59930;SDS011;45790;51.538;6.736;2022-07-29T11:15:16;2.65;;;1.40;;
59930;SDS011;45790;51.538;6.736;2022-07-29T11:23:00;3.05;;;1.30;;
59930;SDS011;45790;51.538;6.736;2022-07-29T11:25:25;3.33;;;1.40;;
59930;SDS011;45790;51.538;6.736;2022-07-29T11:27:52;2.10;;;1.15;;
59930;SDS011;45790;51.538;6.736;2022-07-29T11:30:18;3.75;;;1.30;;
59930;SDS011;45790;51.538;6.736;2022-07-29T11:32:44;2.92;;;1.30;;
59930;SDS011;45790;51.538;6.736;2022-07-29T11:41:19;3.58;;;1.45;;
59930;SDS011;45790;51.538;6.736;2022-07-29T11:49:23;2.40;;;1.30;;
59930;SDS011;45790;51.538;6.736;2022-07-29T11:51:53;3.78;;;1.48;;
59930;SDS011;45790;51.538;6.736;2022-07-29T11:54:23;2.72;;;1.40;;
59930;SDS011;45790;51.538;6.736;2022-07-29T11:56:51;2.70;;;1.30;;
59930;SDS011;45790;51.538;6.736;2022-07-29T11:59:17;2.38;;;1.30;;
59930;SDS011;45790;51.538;6.736;2022-07-29T12:01:52;2.78;;;1.40;;
59930;SDS011;45790;51.538;6.736;2022-07-29T12:04:21;5.72;;;1.40;;
59930;SDS011;45790;51.538;6.736;2022-07-29T12:06:51;4.28;;;1.45;;
59930;SDS011;45790;51.538;6.736;2022-07-29T12:09:17;2.65;;;1.40;;
59930;SDS011;45790;51.538;6.736;2022-07-29T12:11:43;4.80;;;1.40;;
59930;SDS011;45790;51.538;6.736;2022-07-29T12:14:08;2.92;;;1.17;;
59930;SDS011;45790;51.538;6.736;2022-07-29T12:16:37;3.70;;;1.50;;
59930;SDS011;45790;51.538;6.736;2022-07-29T12:19:03;3.22;;;1.38;;
59930;SDS011;45790;51.538;6.736;2022-07-29T12:21:51;3.92;;;1.40;;
59930;SDS011;45790;51.538;6.736;2022-07-29T12:24:15;3.10;;;1.15;;
59930;SDS011;45790;51.538;6.736;2022-07-29T12:29:24;4.47;;;1.70;;
59930;SDS011;45790;51.538;6.736;2022-07-29T12:31:52;3.47;;;1.42;;
59930;SDS011;45790;51.538;6.736;2022-07-29T12:36:48;3.75;;;1.35;;
59930;SDS011;45790;51.538;6.736;2022-07-29T12:39:15;4.50;;;1.40;;
59930;SDS011;45790;51.538;6.736;2022-07-29T12:41:41;2.67;;;1.30;;
59930;SDS011;45790;51.538;6.736;2022-07-29T12:44:06;2.03;;;1.15;;
59930;SDS011;45790;51.538;6.736;2022-07-29T12:46:34;2.25;;;1.20;;
59930;SDS011;45790;51.538;6.736;2022-07-29T12:48:59;3.17;;;1.10;;
59930;SDS011;45790;51.538;6.736;2022-07-29T12:51:31;3.08;;;1.50;;
59930;SDS011;45790;51.538;6.736;2022-07-29T12:54:02;2.88;;;1.40;;
59930;SDS011;45790;51.538;6.736;2022-07-29T12:56:28;4.70;;;1.42;;
59930;SDS011;45790;51.538;6.736;2022-07-29T12:58:53;2.88;;;1.30;;
59930;SDS011;45790;51.538;6.736;2022-07-29T13:01:19;2.72;;;1.20;;
59930;SDS011;45790;51.538;6.736;2022-07-29T13:03:53;3.47;;;1.33;;
59930;SDS011;45790;51.538;6.736;2022-07-29T13:11:28;3.45;;;1.20;;
59930;SDS011;45790;51.538;6.736;2022-07-29T13:13:59;2.63;;;1.30;;
59930;SDS011;45790;51.538;6.736;2022-07-29T13:16:24;2.33;;;1.23;;
59930;SDS011;45790;51.538;6.736;2022-07-29T13:19:02;2.33;;;1.25;;
59930;SDS011;45790;51.538;6.736;2022-07-29T13:21:31;2.22;;;1.10;;
59930;SDS011;45790;51.538;6.736;2022-07-29T13:23:56;2.08;;;1.17;;
59930;SDS011;45790;51.538;6.736;2022-07-29T13:26:22;4.07;;;1.40;;
59930;SDS011;45790;51.538;6.736;2022-07-29T13:28:47;2.78;;;1.20;;
59930;SDS011;45790;51.538;6.736;2022-07-29T13:31:12;3.30;;;1.35;;
59930;SDS011;45790;51.538;6.736;2022-07-29T13:33:38;2.17;;;1.17;;
59930;SDS011;45790;51.538;6.736;2022-07-29T13:36:03;3.03;;;1.35;;
59930;SDS011;45790;51.538;6.736;2022-07-29T13:38:28;4.72;;;1.42;;
59930;SDS011;45790;51.538;6.736;2022-07-29T13:40:54;3.25;;;1.30;;
59930;SDS011;45790;51.538;6.736;2022-07-29T13:43:19;2.10;;;1.10;;
59930;SDS011;45790;51.538;6.736;2022-07-29T13:45:44;3.50;;;1.50;;
59930;SDS011;45790;51.538;6.736;2022-07-29T13:48:10;2.72;;;1.27;;
59930;SDS011;45790;51.538;6.736;2022-07-29T13:50:36;3.13;;;1.20;;
59930;SDS011;45790;51.538;6.736;2022-07-29T13:53:01;2.95;;;1.00;;
59930;SDS011;45790;51.538;6.736;2022-07-29T13:55:27;2.47;;;1.10;;
59930;SDS011;45790;51.538;6.736;2022-07-29T13:57:52;2.72;;;1.20;;
59930;SDS011;45790;51.538;6.736;2022-07-29T14:00:18;2.70;;;1.20;;
59930;SDS011;45790;51.538;6.736;2022-07-29T14:02:44;2.25;;;1.30;;
59930;SDS011;45790;51.538;6.736;2022-07-29T14:05:09;3.33;;;1.15;;
59930;SDS011;45790;51.538;6.736;2022-07-29T14:07:35;2.22;;;1.08;;
59930;SDS011;45790;51.538;6.736;2022-07-29T14:10:01;4.45;;;1.10;;
59930;SDS011;45790;51.538;6.736;2022-07-29T14:12:26;2.33;;;1.10;;
59930;SDS011;45790;51.538;6.736;2022-07-29T14:14:51;3.33;;;1.13;;
59930;SDS011;45790;51.538;6.736;2022-07-29T14:17:17;3.50;;;1.40;;
59930;SDS011;45790;51.538;6.736;2022-07-29T14:19:42;5.10;;;1.17;;
59930;SDS011;45790;51.538;6.736;2022-07-29T14:22:07;4.03;;;1.30;;
59930;SDS011;45790;51.538;6.736;2022-07-29T14:24:33;2.78;;;1.55;;
59930;SDS011;45790;51.538;6.736;2022-07-29T14:26:59;3.33;;;1.38;;
59930;SDS011;45790;51.538;6.736;2022-07-29T14:29:24;4.43;;;1.60;;
59930;SDS011;45790;51.538;6.736;2022-07-29T14:31:50;3.70;;;1.38;;
59930;SDS011;45790;51.538;6.736;2022-07-29T14:34:15;1.85;;;1.00;;
59930;SDS011;45790;51.538;6.736;2022-07-29T14:36:40;2.75;;;1.20;;
59930;SDS011;45790;51.538;6.736;2022-07-29T14:39:06;3.20;;;1.30;;
59930;SDS011;45790;51.538;6.736;2022-07-29T14:41:31;3.38;;;1.30;;
59930;SDS011;45790;51.538;6.736;2022-07-29T14:43:57;2.50;;;1.15;;
59930;SDS011;45790;51.538;6.736;2022-07-29T14:46:25;3.25;;;1.20;;
59930;SDS011;45790;51.538;6.736;2022-07-29T14:48:51;1.90;;;1.10;;
59930;SDS011;45790;51.538;6.736;2022-07-29T14:51:16;3.05;;;1.17;;
59930;SDS011;45790;51.538;6.736;2022-07-29T14:53:42;2.85;;;1.35;;
59930;SDS011;45790;51.538;6.736;2022-07-29T14:56:08;4.85;;;1.73;;
59930;SDS011;45790;51.538;6.736;2022-07-29T14:58:33;2.78;;;1.40;;
59930;SDS011;45790;51.538;6.736;2022-07-29T15:00:58;2.80;;;1.20;;
59930;SDS011;45790;51.538;6.736;2022-07-29T15:03:24;2.67;;;1.02;;
59930;SDS011;45790;51.538;6.736;2022-07-29T15:05:49;2.03;;;0.95;;
59930;SDS011;45790;51.538;6.736;2022-07-29T15:08:14;6.00;;;1.55;;
59930;SDS011;45790;51.538;6.736;2022-07-29T15:10:40;3.47;;;1.42;;
59930;SDS011;45790;51.538;6.736;2022-07-29T15:13:05;1.83;;;1.00;;
59930;SDS011;45790;51.538;6.736;2022-07-29T15:15:31;2.92;;;1.35;;
59930;SDS011;45790;51.538;6.736;2022-07-29T15:17:56;6.07;;;1.23;;
59930;SDS011;45790;51.538;6.736;2022-07-29T15:20:21;3.20;;;1.10;;
59930;SDS011;45790;51.538;6.736;2022-07-29T15:22:50;3.47;;;1.30;;
59930;SDS011;45790;51.538;6.736;2022-07-29T15:25:15;2.83;;;1.30;;
59930;SDS011;45790;51.538;6.736;2022-07-29T15:27:40;2.20;;;1.23;;
59930;SDS011;45790;51.538;6.736;2022-07-29T15:30:06;2.70;;;1.30;;
59930;SDS011;45790;51.538;6.736;2022-07-29T15:32:32;2.00;;;1.30;;
59930;SDS011;45790;51.538;6.736;2022-07-29T15:34:57;3.67;;;1.52;;
59930;SDS011;45790;51.538;6.736;2022-07-29T15:37:22;2.25;;;1.10;;
59930;SDS011;45790;51.538;6.736;2022-07-29T15:39:48;1.88;;;1.15;;
59930;SDS011;45790;51.538;6.736;2022-07-29T15:42:14;3.67;;;1.33;;
59930;SDS011;45790;51.538;6.736;2022-07-29T15:44:39;3.17;;;1.25;;
59930;SDS011;45790;51.538;6.736;2022-07-29T15:47:05;3.00;;;1.42;;
59930;SDS011;45790;51.538;6.736;2022-07-29T15:49:37;3.63;;;1.38;;